• Join FlightAware (Why Join?)
  • Login
  • US Flag GB Flag 
05:19 EST


 

Airport Tracker/Info


-or-


 

Live Flight TrackerFlight Track Log ✈ FLG4099 ✈ 11-May-2013 ✈ KBTV - KDTW

Flight Track Log - Related Links

Times and Time Zones

All times are in EDT time to prevent confusion due to time zone crossing. See the FLG4099 flight status page for this flight to view local times or setup timezone preferences in your user account.

Time Position Orientation Groundspeed Altitude Reporting Facility
EDT Latitude Longitude Course Direction KTS MPH feet Rate Location/Type
06:09 44.4281 -73.1261 256° West 177 204 3,100  Level Boston Center
06:10 44.3964 -73.1753 228° Southwest 156 180 5,400 2,460 Climbing Boston Center
06:11 44.3793 -73.6414 253° West  Level FlightAware Approximate
06:11 44.3856 -73.2708 261° West 188 216 8,100  Level Boston Center
06:12 44.3575 -73.7644 259° West  Level FlightAware Approximate
06:12 44.3722 -73.3608 258° West 245 282 10,800  Level Boston Center
06:13 44.3397 -73.8887 259° West  Level FlightAware Approximate
06:13 44.3567 -73.4708 259° West 284 327 12,200  Level Boston Center
06:14 44.3189 -74.0120 256° West  Level FlightAware Approximate
06:14 44.3344 -73.6183 258° West 320 368 14,100  Level Boston Center
06:15 44.3097 -73.7833 258° West 342 394 16,100 1,740 Climbing Boston Center
06:16 44.2914 -73.9164 259° West 342 394 17,600 1,500 Climbing Boston Center
06:17 44.2708 -74.0522 258° West 352 405 19,200 1,380 Climbing Boston Center
06:18 44.2503 -74.1850 258° West 357 411 20,400 1,260 Climbing Boston Center
06:19 44.2292 -74.3206 258° West 357 411 21,800 1,200 Climbing Boston Center
06:20 44.2125 -74.4444 259° West 357 411 22,800 780 Climbing Boston Center
06:21 44.1914 -74.5797 258° West 363 418 23,600 660 Climbing Boston Center
06:22 44.1653 -74.7525 258° West 373 429 24,300 600 Climbing Boston Center
06:23 44.1433 -74.8992 258° West 378 435 24,900 600 Climbing Boston Center
06:24 44.1192 -75.0458 257° West 388 447 25,500 600 Climbing Boston Center
06:25 44.0972 -75.1922 258° West 393 452 26,100 600 Climbing Boston Center
06:26 44.0747 -75.3386 258° West 393 452 26,700 480 Climbing Boston Center
06:27 44.0500 -75.4847 257° West 393 452 27,100 480 Climbing Boston Center
06:28 44.0314 -75.6369 260° West 393 452 27,700 420 Climbing Boston Center
06:29 44.0167 -75.7922 263° West 398 458 28,000 120 Climbing Boston Center
06:30 44.0017 -75.9444 262° West 408 470 28,000  Level Boston Center
06:31 43.9861 -76.1022 262° West 408 470 28,000  Level Boston Center
06:32 43.9728 -76.2600 263° West 408 470 28,000  Level Boston Center
06:33 43.9550 -76.4147 261° West 408 470 28,000  Level Boston Center
06:35 43.9167 -76.7167 260° West 410 472 28,000  Level Toronto Center
06:36 43.8833 -76.8833 255° West 410 472 28,000  Level Toronto Center
06:37 43.8667 -77.0167 260° West 410 472 28,000  Level Toronto Center
06:38 43.8500 -77.1833 262° West 410 472 28,000  Level Toronto Center
06:39 43.8333 -77.3500 262° West 410 472 28,000  Level Toronto Center
06:40 43.8333 -77.5000 270° West 410 472 28,000  Level Toronto Center
06:41 43.8000 -77.6500 253° West 410 472 28,000  Level Toronto Center
06:42 43.7833 -77.7833 260° West 410 472 28,000  Level Toronto Center
06:43 43.7667 -77.9500 262° West 410 472 28,000  Level Toronto Center
06:44 43.7500 -78.1167 262° West 410 472 28,000  Level Toronto Center
06:45 43.7167 -78.2667 253° West 410 472 28,000  Level Toronto Center
06:46 43.7000 -78.4333 262° West 410 472 28,000  Level Toronto Center
06:47 43.7000 -78.6000 270° West 410 472 28,000  Level Toronto Center
06:48 43.6667 -78.7333 251° West 410 472 28,000  Level Toronto Center
06:49 43.6167 -78.8667 243° Southwest 410 472 28,000  Level Toronto Center
06:50 43.5500 -79.0167 239° Southwest 410 472 28,000  Level Toronto Center
06:51 43.4833 -79.1333 232° Southwest 410 472 28,000  Level Toronto Center
06:52 43.4333 -79.2667 243° Southwest 410 472 28,000  Level Toronto Center
06:53 43.3667 -79.4000 236° Southwest 400 460 28,000  Level Toronto Center
06:54 43.3167 -79.5167 240° Southwest 390 449 28,000  Level Toronto Center
06:55 43.2500 -79.6500 236° Southwest 380 437 28,000  Level Toronto Center
06:56 43.2000 -79.7667 240° Southwest 380 437 28,000  Level Toronto Center
06:57 43.1500 -79.9000 243° Southwest 370 426 28,000 -300 Level Toronto Center
06:58 43.1000 -80.0167 240° Southwest 370 426 27,500 -960 Descending Toronto Center
06:59 43.0333 -80.1333 232° Southwest 390 449 26,100 -1,200 Descending Toronto Center
07:00 42.9833 -80.2667 243° Southwest 400 460 25,200 -960 Descending Toronto Center
07:01 42.9167 -80.3833 232° Southwest 400 460 24,200 -960 Descending Toronto Center
07:02 42.8708 -80.5378 248° West 410 472 23,400 -660 Descending Cleveland Center
07:03 42.8083 -80.6708 237° Southwest 416 479 23,000 -240 Descending Cleveland Center
07:04 42.7475 -80.8036 238° Southwest 422 486 23,000  Level Cleveland Center
07:05 42.7014 -80.9419 246° West 417 480 23,000  Level Cleveland Center
07:06 42.6842 -81.1000 262° West 412 474 23,000  Level Cleveland Center
07:07 42.6644 -81.2525 260° West 412 474 23,000  Level Cleveland Center
07:08 42.6469 -81.4103 261° West 417 480 23,000  Level Cleveland Center
07:09 42.6292 -81.5594 261° West 417 480 23,000 -60 Level Cleveland Center
07:10 42.6108 -81.7144 261° West 417 480 22,900 -900 Descending Cleveland Center
07:11 42.5906 -81.8636 260° West 411 473 21,300 -1,800 Descending Cleveland Center
07:12 42.5742 -82.0128 262° West 411 473 19,300 -2,040 Descending Cleveland Center
07:13 42.5578 -82.1531 261° West 406 467 17,300 -2,040 Descending Cleveland Center
07:14 42.5483 -82.2431 262° West 368 423 15,900 -2,040 Descending Cleveland Center
07:14 42.5392 -82.2881 255° West 388 447 15,300 -1,920 Descending Cleveland Center
07:15 42.5250 -82.4089 261° West 361 415 13,600 -1,680 Descending Cleveland Center
07:16 42.5058 -82.5547 260° West 344 396 12,000 -1,380 Descending Cleveland Center
07:17 42.4664 -82.6689 245° Southwest 332 382 10,800 -1,020 Descending Cleveland Center
07:18 42.4311 -82.7606 242° Southwest 320 368 10,000 -1,200 Descending Cleveland Center
07:19 42.4419 -82.8481 280° West 257 296 8,500 -1,500 Descending Cleveland Center
07:20 42.4550 -82.9331 282° West 250 288 7,100 -780 Descending Cleveland Center
07:21 42.4658 -83.0150 280° West 239 275 7,000 -600 Descending Cleveland Center
07:22 42.4747 -83.0858 280° West 217 250 6,000 -540 Descending Cleveland Center
07:23 42.4669 -83.1503 261° West 193 222 6,000 -420 Level Cleveland Center
07:24 42.4181 -83.1878 210° Southwest 186 214 5,200 -960 Descending Cleveland Center
07:25 42.3736 -83.2222 210° Southwest 197 227 4,100 -1,140 Descending Cleveland Center